This is the latest recevied weather packets stored in our database for station/object WP3OF-3. If no packets are shown the sender has not sent any weather packets the latest 10 day(s).
| Time | Temp. | Humidity | Pressure | Rain* | Wind** | Luminosity | Snow |
|---|---|---|---|---|---|---|---|
| 1777754069 | 25.56° C | 92% | 1017 hPa | 12.7 mm | - | - | - |
| 1777753764 | 25.56° C | 91% | 1017 hPa | 10.67 mm | - | - | - |
| 1777753461 | 25.56° C | 90% | 1016.9 hPa | 3.05 mm | - | - | - |
| 1777753160 | 25.56° C | 90% | 1017 hPa | 1.78 mm | - | - | - |
| 1777752855 | 25.56° C | 88% | 1016.8 hPa | 0 mm | - | - | - |
| 1777752553 | 26.11° C | 88% | 1016.9 hPa | 1.27 mm | - | - | - |
| 1777752248 | 26.67° C | 85% | 1017 hPa | 1.27 mm | - | - | - |
| 1777751946 | 26.67° C | 85% | 1016.9 hPa | 0 mm | - | - | - |
| 1777751643 | 27.78° C | 81% | 1017.1 hPa | 0 mm | - | - | - |
| 1777751339 | 27.78° C | 79% | 1017.1 hPa | 0 mm | - | - | - |
| 1777751036 | 27.78° C | 78% | 1017 hPa | 0 mm | - | - | - |
| 1777750731 | 28.33° C | 77% | 1017.1 hPa | 0 mm | - | - | - |
| 1777750429 | 28.33° C | 77% | 1017.3 hPa | 0 mm | - | - | - |
| 1777750124 | 28.33° C | 76% | 1016.9 hPa | 0 mm | - | - | - |
| 1777749822 | 28.33° C | 75% | 1017 hPa | 0 mm | - | - | - |
| 1777749519 | 28.33° C | 76% | 1016.9 hPa | 0 mm | - | - | - |
| 1777749217 | 28.89° C | 75% | 1017 hPa | 0 mm | - | - | - |
| 1777748914 | 28.33° C | 76% | 1017.1 hPa | 0 mm | - | - | - |
| 1777748611 | 28.33° C | 75% | 1017.3 hPa | 0 mm | - | - | - |
| 1777748307 | 28.89° C | 75% | 1017.2 hPa | 0 mm | - | - | - |
| 1777748002 | 28.89° C | 75% | 1017.3 hPa | 0 mm | - | - | - |
| 1777747700 | 29.44° C | 74% | 1017.1 hPa | 0 mm | - | - | - |
| 1777747395 | 30° C | 73% | 1017.3 hPa | 0 mm | - | - | - |
| 1777747092 | 30° C | 71% | 1017.4 hPa | 0 mm | - | - | - |
| 1777746788 | 29.44° C | 73% | 1017.5 hPa | 0 mm | - | - | - |
* Rain latest hour (hover to see other rain measurements)
** Current wind speed in m/s (hover to see current wind gust speed)